sensor_id;sensor_type;location;lat;lon;timestamp;temperature;humidity
4602;DHT22;2313;48.552;9.370;2023-07-22T00:00:59;15.40;99.90
4602;DHT22;2313;48.552;9.370;2023-07-22T00:03:24;15.50;99.90
4602;DHT22;2313;48.552;9.370;2023-07-22T00:06:05;15.40;99.90
4602;DHT22;2313;48.552;9.370;2023-07-22T00:08:32;15.40;99.90
4602;DHT22;2313;48.552;9.370;2023-07-22T00:10:58;15.40;99.90
4602;DHT22;2313;48.552;9.370;2023-07-22T00:13:23;15.40;99.90
4602;DHT22;2313;48.552;9.370;2023-07-22T00:15:55;15.50;99.90
4602;DHT22;2313;48.552;9.370;2023-07-22T00:18:21;15.50;99.90
4602;DHT22;2313;48.552;9.370;2023-07-22T00:20:46;15.50;99.90
4602;DHT22;2313;48.552;9.370;2023-07-22T00:23:12;15.40;99.90
4602;DHT22;2313;48.552;9.370;2023-07-22T00:25:38;15.30;99.90
4602;DHT22;2313;48.552;9.370;2023-07-22T00:28:03;15.30;99.90
4602;DHT22;2313;48.552;9.370;2023-07-22T00:30:29;15.10;99.90
4602;DHT22;2313;48.552;9.370;2023-07-22T00:32:55;15.10;99.90
4602;DHT22;2313;48.552;9.370;2023-07-22T00:35:21;15.10;99.90
4602;DHT22;2313;48.552;9.370;2023-07-22T00:37:46;15.10;99.90
4602;DHT22;2313;48.552;9.370;2023-07-22T00:40:12;15.20;99.90
4602;DHT22;2313;48.552;9.370;2023-07-22T00:42:38;15.20;99.90
4602;DHT22;2313;48.552;9.370;2023-07-22T00:45:04;15.10;99.90
4602;DHT22;2313;48.552;9.370;2023-07-22T00:47:32;15.10;99.90
4602;DHT22;2313;48.552;9.370;2023-07-22T00:50:00;15.20;99.90
4602;DHT22;2313;48.552;9.370;2023-07-22T00:52:26;15.10;99.90
4602;DHT22;2313;48.552;9.370;2023-07-22T00:54:52;15.10;99.90
4602;DHT22;2313;48.552;9.370;2023-07-22T00:57:18;15.10;99.90
4602;DHT22;2313;48.552;9.370;2023-07-22T00:59:44;15.10;99.90
4602;DHT22;2313;48.552;9.370;2023-07-22T01:02:10;15.00;99.90
4602;DHT22;2313;48.552;9.370;2023-07-22T01:04:36;15.10;99.90
4602;DHT22;2313;48.552;9.370;2023-07-22T01:07:04;15.10;99.90
4602;DHT22;2313;48.552;9.370;2023-07-22T01:09:38;15.10;99.90
4602;DHT22;2313;48.552;9.370;2023-07-22T01:12:04;15.00;99.90
4602;DHT22;2313;48.552;9.370;2023-07-22T01:14:35;15.10;99.90
4602;DHT22;2313;48.552;9.370;2023-07-22T01:17:05;15.10;99.90
4602;DHT22;2313;48.552;9.370;2023-07-22T01:19:35;15.20;99.90
4602;DHT22;2313;48.552;9.370;2023-07-22T01:22:05;15.20;99.90
4602;DHT22;2313;48.552;9.370;2023-07-22T01:24:33;15.10;99.90
4602;DHT22;2313;48.552;9.370;2023-07-22T01:26:59;15.20;99.90
4602;DHT22;2313;48.552;9.370;2023-07-22T01:29:25;15.10;99.90
4602;DHT22;2313;48.552;9.370;2023-07-22T01:31:53;15.10;99.90
4602;DHT22;2313;48.552;9.370;2023-07-22T01:34:19;15.10;99.90
4602;DHT22;2313;48.552;9.370;2023-07-22T01:36:49;15.10;99.90
4602;DHT22;2313;48.552;9.370;2023-07-22T01:39:15;15.10;99.90
4602;DHT22;2313;48.552;9.370;2023-07-22T01:41:41;15.10;99.90
4602;DHT22;2313;48.552;9.370;2023-07-22T01:44:07;15.20;99.90
4602;DHT22;2313;48.552;9.370;2023-07-22T01:46:33;15.10;99.90
4602;DHT22;2313;48.552;9.370;2023-07-22T01:49:00;15.10;99.90
4602;DHT22;2313;48.552;9.370;2023-07-22T01:51:27;15.00;99.90
4602;DHT22;2313;48.552;9.370;2023-07-22T01:53:53;14.80;99.90
4602;DHT22;2313;48.552;9.370;2023-07-22T01:56:18;14.70;99.90
4602;DHT22;2313;48.552;9.370;2023-07-22T01:58:45;14.60;99.90
4602;DHT22;2313;48.552;9.370;2023-07-22T02:01:11;14.40;99.90
4602;DHT22;2313;48.552;9.370;2023-07-22T02:03:40;14.30;99.90
4602;DHT22;2313;48.552;9.370;2023-07-22T02:06:06;14.20;99.90
4602;DHT22;2313;48.552;9.370;2023-07-22T02:08:32;14.00;99.90
4602;DHT22;2313;48.552;9.370;2023-07-22T02:11:05;13.90;99.90
4602;DHT22;2313;48.552;9.370;2023-07-22T02:13:32;13.90;99.90
4602;DHT22;2313;48.552;9.370;2023-07-22T02:15:58;13.80;99.90
4602;DHT22;2313;48.552;9.370;2023-07-22T02:18:24;13.80;99.90
4602;DHT22;2313;48.552;9.370;2023-07-22T02:20:50;13.70;99.90
4602;DHT22;2313;48.552;9.370;2023-07-22T02:23:15;13.70;99.90
4602;DHT22;2313;48.552;9.370;2023-07-22T02:25:41;13.70;99.90
4602;DHT22;2313;48.552;9.370;2023-07-22T02:28:06;13.60;99.90
4602;DHT22;2313;48.552;9.370;2023-07-22T02:30:36;13.60;99.90
4602;DHT22;2313;48.552;9.370;2023-07-22T02:33:02;13.60;99.90
4602;DHT22;2313;48.552;9.370;2023-07-22T02:35:28;13.60;99.90
4602;DHT22;2313;48.552;9.370;2023-07-22T02:37:54;13.60;99.90
4602;DHT22;2313;48.552;9.370;2023-07-22T02:40:19;13.60;99.90
4602;DHT22;2313;48.552;9.370;2023-07-22T02:42:45;13.50;99.90
4602;DHT22;2313;48.552;9.370;2023-07-22T02:45:11;13.50;99.90
4602;DHT22;2313;48.552;9.370;2023-07-22T02:47:38;13.50;99.90
4602;DHT22;2313;48.552;9.370;2023-07-22T02:50:05;13.50;99.90
4602;DHT22;2313;48.552;9.370;2023-07-22T02:52:31;13.50;99.90
4602;DHT22;2313;48.552;9.370;2023-07-22T02:55:13;13.60;99.90
4602;DHT22;2313;48.552;9.370;2023-07-22T02:57:40;13.60;99.90
4602;DHT22;2313;48.552;9.370;2023-07-22T03:00:07;13.60;99.90
4602;DHT22;2313;48.552;9.370;2023-07-22T03:02:37;13.80;99.90
4602;DHT22;2313;48.552;9.370;2023-07-22T03:05:09;14.10;99.90
4602;DHT22;2313;48.552;9.370;2023-07-22T03:07:36;14.30;99.90
4602;DHT22;2313;48.552;9.370;2023-07-22T03:10:02;14.40;99.90
4602;DHT22;2313;48.552;9.370;2023-07-22T03:12:28;14.50;99.90
4602;DHT22;2313;48.552;9.370;2023-07-22T03:14:54;14.70;99.90
4602;DHT22;2313;48.552;9.370;2023-07-22T03:17:20;14.80;99.90
4602;DHT22;2313;48.552;9.370;2023-07-22T03:19:46;14.70;99.90
4602;DHT22;2313;48.552;9.370;2023-07-22T03:22:14;14.50;99.90
4602;DHT22;2313;48.552;9.370;2023-07-22T03:24:41;14.30;99.90
4602;DHT22;2313;48.552;9.370;2023-07-22T03:27:07;14.00;99.90
4602;DHT22;2313;48.552;9.370;2023-07-22T03:29:33;13.90;99.90
4602;DHT22;2313;48.552;9.370;2023-07-22T03:31:59;13.70;99.90
4602;DHT22;2313;48.552;9.370;2023-07-22T03:34:26;13.60;99.90
4602;DHT22;2313;48.552;9.370;2023-07-22T03:36:52;13.50;99.90
4602;DHT22;2313;48.552;9.370;2023-07-22T03:39:17;13.40;99.90
4602;DHT22;2313;48.552;9.370;2023-07-22T03:41:43;13.40;99.90
4602;DHT22;2313;48.552;9.370;2023-07-22T03:44:09;13.40;99.90
4602;DHT22;2313;48.552;9.370;2023-07-22T03:46:34;13.50;99.90
4602;DHT22;2313;48.552;9.370;2023-07-22T03:49:00;13.40;99.90
4602;DHT22;2313;48.552;9.370;2023-07-22T03:51:25;13.40;99.90
4602;DHT22;2313;48.552;9.370;2023-07-22T03:53:51;13.40;99.90
4602;DHT22;2313;48.552;9.370;2023-07-22T03:56:17;13.40;99.90
4602;DHT22;2313;48.552;9.370;2023-07-22T03:58:42;13.30;99.90
4602;DHT22;2313;48.552;9.370;2023-07-22T04:01:11;13.30;99.90
4602;DHT22;2313;48.552;9.370;2023-07-22T04:03:36;13.40;99.90
4602;DHT22;2313;48.552;9.370;2023-07-22T04:06:02;13.40;99.90
4602;DHT22;2313;48.552;9.370;2023-07-22T04:08:28;13.40;99.90
4602;DHT22;2313;48.552;9.370;2023-07-22T04:10:54;13.40;99.90
4602;DHT22;2313;48.552;9.370;2023-07-22T04:13:21;13.30;99.90
4602;DHT22;2313;48.552;9.370;2023-07-22T04:15:47;13.30;99.90
4602;DHT22;2313;48.552;9.370;2023-07-22T04:18:16;13.40;99.90
4602;DHT22;2313;48.552;9.370;2023-07-22T04:20:41;13.30;99.90
4602;DHT22;2313;48.552;9.370;2023-07-22T04:23:07;13.20;99.90
4602;DHT22;2313;48.552;9.370;2023-07-22T04:25:32;13.30;99.90
4602;DHT22;2313;48.552;9.370;2023-07-22T04:27:59;13.30;99.90
4602;DHT22;2313;48.552;9.370;2023-07-22T04:30:24;13.30;99.90
4602;DHT22;2313;48.552;9.370;2023-07-22T04:32:50;13.40;99.90
4602;DHT22;2313;48.552;9.370;2023-07-22T04:35:16;13.40;99.90
4602;DHT22;2313;48.552;9.370;2023-07-22T04:37:44;13.50;99.90
4602;DHT22;2313;48.552;9.370;2023-07-22T04:40:11;13.50;99.90
4602;DHT22;2313;48.552;9.370;2023-07-22T04:42:40;13.60;99.90
4602;DHT22;2313;48.552;9.370;2023-07-22T04:45:06;13.60;99.90
4602;DHT22;2313;48.552;9.370;2023-07-22T04:47:32;13.70;99.90
4602;DHT22;2313;48.552;9.370;2023-07-22T04:49:58;13.60;99.90
4602;DHT22;2313;48.552;9.370;2023-07-22T04:52:23;13.60;99.90
4602;DHT22;2313;48.552;9.370;2023-07-22T04:54:49;13.70;99.90
4602;DHT22;2313;48.552;9.370;2023-07-22T04:57:15;13.80;99.90
4602;DHT22;2313;48.552;9.370;2023-07-22T04:59:42;13.90;99.90
4602;DHT22;2313;48.552;9.370;2023-07-22T05:02:08;14.00;99.90
4602;DHT22;2313;48.552;9.370;2023-07-22T05:04:33;14.10;99.90
4602;DHT22;2313;48.552;9.370;2023-07-22T05:07:00;14.10;99.90
4602;DHT22;2313;48.552;9.370;2023-07-22T05:09:25;14.30;99.90
4602;DHT22;2313;48.552;9.370;2023-07-22T05:11:51;14.30;99.90
4602;DHT22;2313;48.552;9.370;2023-07-22T05:14:17;14.40;99.90
4602;DHT22;2313;48.552;9.370;2023-07-22T05:16:42;14.40;99.90
4602;DHT22;2313;48.552;9.370;2023-07-22T05:19:08;14.50;99.90
4602;DHT22;2313;48.552;9.370;2023-07-22T05:21:33;14.50;99.90
4602;DHT22;2313;48.552;9.370;2023-07-22T05:23:59;14.60;99.90
4602;DHT22;2313;48.552;9.370;2023-07-22T05:26:25;14.70;99.90
4602;DHT22;2313;48.552;9.370;2023-07-22T05:28:50;14.80;99.90
4602;DHT22;2313;48.552;9.370;2023-07-22T05:31:16;14.80;99.90
4602;DHT22;2313;48.552;9.370;2023-07-22T05:33:42;15.00;99.90
4602;DHT22;2313;48.552;9.370;2023-07-22T05:36:07;15.10;99.90
4602;DHT22;2313;48.552;9.370;2023-07-22T05:38:33;15.30;99.90
4602;DHT22;2313;48.552;9.370;2023-07-22T05:40:58;15.40;99.90
4602;DHT22;2313;48.552;9.370;2023-07-22T05:43:24;15.50;99.90
4602;DHT22;2313;48.552;9.370;2023-07-22T05:45:50;15.70;99.90
4602;DHT22;2313;48.552;9.370;2023-07-22T05:48:16;15.80;99.90
4602;DHT22;2313;48.552;9.370;2023-07-22T05:50:41;16.00;99.90
4602;DHT22;2313;48.552;9.370;2023-07-22T05:53:07;16.10;99.90
4602;DHT22;2313;48.552;9.370;2023-07-22T05:55:32;16.40;99.90
4602;DHT22;2313;48.552;9.370;2023-07-22T05:57:58;16.50;99.90
4602;DHT22;2313;48.552;9.370;2023-07-22T06:00:25;16.80;99.90
4602;DHT22;2313;48.552;9.370;2023-07-22T06:02:50;17.00;99.90
4602;DHT22;2313;48.552;9.370;2023-07-22T06:05:16;17.30;99.90
4602;DHT22;2313;48.552;9.370;2023-07-22T06:07:42;17.60;99.90
4602;DHT22;2313;48.552;9.370;2023-07-22T06:10:07;17.80;99.90
4602;DHT22;2313;48.552;9.370;2023-07-22T06:12:34;18.00;99.90
4602;DHT22;2313;48.552;9.370;2023-07-22T06:15:00;18.10;99.90
4602;DHT22;2313;48.552;9.370;2023-07-22T06:17:26;18.30;99.90
4602;DHT22;2313;48.552;9.370;2023-07-22T06:19:51;18.50;99.90
4602;DHT22;2313;48.552;9.370;2023-07-22T06:22:17;18.60;99.90
4602;DHT22;2313;48.552;9.370;2023-07-22T06:24:42;18.80;99.90
4602;DHT22;2313;48.552;9.370;2023-07-22T06:27:08;18.90;99.90
4602;DHT22;2313;48.552;9.370;2023-07-22T06:29:34;18.90;99.90
4602;DHT22;2313;48.552;9.370;2023-07-22T06:31:59;19.10;99.90
4602;DHT22;2313;48.552;9.370;2023-07-22T06:34:25;19.10;99.90
4602;DHT22;2313;48.552;9.370;2023-07-22T06:36:50;19.30;99.90
4602;DHT22;2313;48.552;9.370;2023-07-22T06:39:16;19.40;99.90
4602;DHT22;2313;48.552;9.370;2023-07-22T06:41:41;19.40;99.90
4602;DHT22;2313;48.552;9.370;2023-07-22T06:44:07;19.50;99.90
4602;DHT22;2313;48.552;9.370;2023-07-22T06:46:32;19.50;99.90
4602;DHT22;2313;48.552;9.370;2023-07-22T06:48:59;19.50;99.90
4602;DHT22;2313;48.552;9.370;2023-07-22T06:51:24;19.60;99.90
4602;DHT22;2313;48.552;9.370;2023-07-22T06:53:50;19.70;99.90
4602;DHT22;2313;48.552;9.370;2023-07-22T06:56:16;19.70;99.90
4602;DHT22;2313;48.552;9.370;2023-07-22T06:58:41;19.80;99.90
4602;DHT22;2313;48.552;9.370;2023-07-22T07:01:07;19.90;99.40
4602;DHT22;2313;48.552;9.370;2023-07-22T07:03:32;19.90;99.40
4602;DHT22;2313;48.552;9.370;2023-07-22T07:05:58;20.00;98.50
4602;DHT22;2313;48.552;9.370;2023-07-22T07:08:24;19.80;99.10
4602;DHT22;2313;48.552;9.370;2023-07-22T07:10:50;19.80;98.60
4602;DHT22;2313;48.552;9.370;2023-07-22T07:13:16;19.80;99.70
4602;DHT22;2313;48.552;9.370;2023-07-22T07:15:45;19.90;99.80
4602;DHT22;2313;48.552;9.370;2023-07-22T07:18:11;19.90;99.30
4602;DHT22;2313;48.552;9.370;2023-07-22T07:20:37;20.00;99.90
4602;DHT22;2313;48.552;9.370;2023-07-22T07:23:03;19.90;99.30
4602;DHT22;2313;48.552;9.370;2023-07-22T07:25:29;20.00;99.90
4602;DHT22;2313;48.552;9.370;2023-07-22T07:27:54;20.10;99.90
4602;DHT22;2313;48.552;9.370;2023-07-22T07:30:20;20.10;99.90
4602;DHT22;2313;48.552;9.370;2023-07-22T07:32:45;20.10;99.90
4602;DHT22;2313;48.552;9.370;2023-07-22T07:35:11;20.10;98.90
4602;DHT22;2313;48.552;9.370;2023-07-22T07:37:37;20.10;99.30
4602;DHT22;2313;48.552;9.370;2023-07-22T07:40:03;20.20;99.70
4602;DHT22;2313;48.552;9.370;2023-07-22T07:42:29;20.20;99.50
4602;DHT22;2313;48.552;9.370;2023-07-22T07:44:55;20.20;99.70
4602;DHT22;2313;48.552;9.370;2023-07-22T07:47:20;20.30;99.90
4602;DHT22;2313;48.552;9.370;2023-07-22T07:49:46;20.40;98.80
4602;DHT22;2313;48.552;9.370;2023-07-22T07:52:12;20.40;98.10
4602;DHT22;2313;48.552;9.370;2023-07-22T07:54:37;20.50;98.70
4602;DHT22;2313;48.552;9.370;2023-07-22T07:57:03;20.50;97.80
4602;DHT22;2313;48.552;9.370;2023-07-22T07:59:29;20.50;97.30
4602;DHT22;2313;48.552;9.370;2023-07-22T08:01:54;20.60;97.50
4602;DHT22;2313;48.552;9.370;2023-07-22T08:04:20;20.70;97.70
4602;DHT22;2313;48.552;9.370;2023-07-22T08:06:45;20.60;95.70
4602;DHT22;2313;48.552;9.370;2023-07-22T08:09:11;20.70;96.60
4602;DHT22;2313;48.552;9.370;2023-07-22T08:11:41;20.70;96.10
4602;DHT22;2313;48.552;9.370;2023-07-22T08:14:07;20.80;95.70
4602;DHT22;2313;48.552;9.370;2023-07-22T08:16:33;20.80;94.60
4602;DHT22;2313;48.552;9.370;2023-07-22T08:18:59;20.90;95.10
4602;DHT22;2313;48.552;9.370;2023-07-22T08:21:24;21.00;94.40
4602;DHT22;2313;48.552;9.370;2023-07-22T08:23:50;21.10;91.70
4602;DHT22;2313;48.552;9.370;2023-07-22T08:26:15;21.20;92.80
4602;DHT22;2313;48.552;9.370;2023-07-22T08:28:46;21.30;92.40
4602;DHT22;2313;48.552;9.370;2023-07-22T08:31:12;21.30;92.20
4602;DHT22;2313;48.552;9.370;2023-07-22T08:33:37;21.40;93.10
4602;DHT22;2313;48.552;9.370;2023-07-22T08:36:03;21.40;92.20
4602;DHT22;2313;48.552;9.370;2023-07-22T08:38:29;21.60;92.00
4602;DHT22;2313;48.552;9.370;2023-07-22T08:40:54;21.70;91.30
4602;DHT22;2313;48.552;9.370;2023-07-22T08:43:21;21.80;90.60
4602;DHT22;2313;48.552;9.370;2023-07-22T08:45:49;21.80;90.70
4602;DHT22;2313;48.552;9.370;2023-07-22T08:48:17;22.00;90.10
4602;DHT22;2313;48.552;9.370;2023-07-22T08:50:53;22.00;90.10
4602;DHT22;2313;48.552;9.370;2023-07-22T08:53:19;22.10;90.00
4602;DHT22;2313;48.552;9.370;2023-07-22T08:55:45;22.30;90.30
4602;DHT22;2313;48.552;9.370;2023-07-22T08:58:11;22.50;90.60
4602;DHT22;2313;48.552;9.370;2023-07-22T09:00:38;22.60;87.70
4602;DHT22;2313;48.552;9.370;2023-07-22T09:03:05;22.70;88.40
4602;DHT22;2313;48.552;9.370;2023-07-22T09:05:32;22.90;90.10
4602;DHT22;2313;48.552;9.370;2023-07-22T09:08:06;22.90;86.10
4602;DHT22;2313;48.552;9.370;2023-07-22T09:10:33;22.70;85.40
4602;DHT22;2313;48.552;9.370;2023-07-22T09:13:00;22.80;82.00
4602;DHT22;2313;48.552;9.370;2023-07-22T09:15:26;23.20;84.20
4602;DHT22;2313;48.552;9.370;2023-07-22T09:17:52;23.60;84.10
4602;DHT22;2313;48.552;9.370;2023-07-22T09:20:19;23.90;80.90
4602;DHT22;2313;48.552;9.370;2023-07-22T09:22:49;24.10;77.40
4602;DHT22;2313;48.552;9.370;2023-07-22T09:25:20;24.40;77.50
4602;DHT22;2313;48.552;9.370;2023-07-22T09:27:47;24.60;78.00
4602;DHT22;2313;48.552;9.370;2023-07-22T09:30:34;24.70;77.20
4602;DHT22;2313;48.552;9.370;2023-07-22T09:33:02;24.90;70.50
4602;DHT22;2313;48.552;9.370;2023-07-22T09:35:48;25.30;71.50
4602;DHT22;2313;48.552;9.370;2023-07-22T09:38:15;25.60;68.80
4602;DHT22;2313;48.552;9.370;2023-07-22T09:40:47;25.70;70.50
4602;DHT22;2313;48.552;9.370;2023-07-22T09:43:12;26.10;67.90
4602;DHT22;2313;48.552;9.370;2023-07-22T09:45:38;26.40;66.10
4602;DHT22;2313;48.552;9.370;2023-07-22T09:48:04;26.40;66.50
4602;DHT22;2313;48.552;9.370;2023-07-22T09:50:31;26.20;66.70
4602;DHT22;2313;48.552;9.370;2023-07-22T09:52:58;25.90;67.10
4602;DHT22;2313;48.552;9.370;2023-07-22T09:55:29;25.80;68.60
4602;DHT22;2313;48.552;9.370;2023-07-22T09:57:57;25.80;68.00
4602;DHT22;2313;48.552;9.370;2023-07-22T10:00:25;26.30;75.50
4602;DHT22;2313;48.552;9.370;2023-07-22T10:02:53;26.50;72.90
4602;DHT22;2313;48.552;9.370;2023-07-22T10:05:21;26.80;73.70
4602;DHT22;2313;48.552;9.370;2023-07-22T10:07:50;26.90;67.60
4602;DHT22;2313;48.552;9.370;2023-07-22T10:10:17;27.30;65.70
4602;DHT22;2313;48.552;9.370;2023-07-22T10:12:43;27.60;67.00
4602;DHT22;2313;48.552;9.370;2023-07-22T10:15:14;27.30;62.70
4602;DHT22;2313;48.552;9.370;2023-07-22T10:17:41;27.00;62.30
4602;DHT22;2313;48.552;9.370;2023-07-22T10:20:08;26.90;64.40
4602;DHT22;2313;48.552;9.370;2023-07-22T10:22:36;27.00;66.40
4602;DHT22;2313;48.552;9.370;2023-07-22T10:25:06;26.40;64.90
4602;DHT22;2313;48.552;9.370;2023-07-22T10:27:35;26.00;67.90
4602;DHT22;2313;48.552;9.370;2023-07-22T10:30:02;26.30;68.60
4602;DHT22;2313;48.552;9.370;2023-07-22T10:32:36;26.80;67.90
4602;DHT22;2313;48.552;9.370;2023-07-22T10:35:02;27.00;65.40
4602;DHT22;2313;48.552;9.370;2023-07-22T10:37:34;26.90;66.10
4602;DHT22;2313;48.552;9.370;2023-07-22T10:40:01;27.30;64.90
4602;DHT22;2313;48.552;9.370;2023-07-22T10:42:41;27.50;61.80
4602;DHT22;2313;48.552;9.370;2023-07-22T10:45:27;28.00;62.50
4602;DHT22;2313;48.552;9.370;2023-07-22T10:48:20;28.10;61.70
4602;DHT22;2313;48.552;9.370;2023-07-22T10:50:51;28.40;64.20
4602;DHT22;2313;48.552;9.370;2023-07-22T10:56:20;28.70;61.20
4602;DHT22;2313;48.552;9.370;2023-07-22T11:06:52;28.80;66.20
4602;DHT22;2313;48.552;9.370;2023-07-22T11:12:14;29.00;63.20
4602;DHT22;2313;48.552;9.370;2023-07-22T11:15:03;29.20;63.20
4602;DHT22;2313;48.552;9.370;2023-07-22T11:17:30;29.50;63.80
4602;DHT22;2313;48.552;9.370;2023-07-22T11:19:58;28.90;62.40
4602;DHT22;2313;48.552;9.370;2023-07-22T11:22:24;29.10;63.90
4602;DHT22;2313;48.552;9.370;2023-07-22T11:24:50;29.40;63.60
4602;DHT22;2313;48.552;9.370;2023-07-22T11:27:15;28.90;66.40
4602;DHT22;2313;48.552;9.370;2023-07-22T11:29:41;27.90;65.00
4602;DHT22;2313;48.552;9.370;2023-07-22T11:32:14;27.30;63.60
4602;DHT22;2313;48.552;9.370;2023-07-22T11:34:42;27.20;63.50
4602;DHT22;2313;48.552;9.370;2023-07-22T11:37:10;27.20;62.10
4602;DHT22;2313;48.552;9.370;2023-07-22T11:39:35;27.20;63.10
4602;DHT22;2313;48.552;9.370;2023-07-22T11:42:03;27.20;64.20
4602;DHT22;2313;48.552;9.370;2023-07-22T11:44:30;26.90;63.50
4602;DHT22;2313;48.552;9.370;2023-07-22T11:47:03;26.50;64.70
4602;DHT22;2313;48.552;9.370;2023-07-22T11:49:35;26.10;65.70
4602;DHT22;2313;48.552;9.370;2023-07-22T11:52:02;26.00;65.40
4602;DHT22;2313;48.552;9.370;2023-07-22T11:54:29;25.70;66.10
4602;DHT22;2313;48.552;9.370;2023-07-22T11:56:55;25.90;66.80
4602;DHT22;2313;48.552;9.370;2023-07-22T11:59:35;26.70;68.40
4602;DHT22;2313;48.552;9.370;2023-07-22T12:02:01;27.00;63.70
4602;DHT22;2313;48.552;9.370;2023-07-22T12:04:28;26.70;63.90
4602;DHT22;2313;48.552;9.370;2023-07-22T12:06:53;26.80;62.80
4602;DHT22;2313;48.552;9.370;2023-07-22T12:09:19;26.80;63.60
4602;DHT22;2313;48.552;9.370;2023-07-22T12:11:45;26.70;65.60
4602;DHT22;2313;48.552;9.370;2023-07-22T12:14:14;26.60;63.80
4602;DHT22;2313;48.552;9.370;2023-07-22T12:16:41;26.40;65.80
4602;DHT22;2313;48.552;9.370;2023-07-22T12:19:08;26.20;61.90
4602;DHT22;2313;48.552;9.370;2023-07-22T12:21:34;26.10;63.40
4602;DHT22;2313;48.552;9.370;2023-07-22T12:24:01;26.00;63.30
4602;DHT22;2313;48.552;9.370;2023-07-22T12:26:27;26.10;63.10
4602;DHT22;2313;48.552;9.370;2023-07-22T12:28:53;26.00;63.70
4602;DHT22;2313;48.552;9.370;2023-07-22T12:31:19;26.10;63.60
4602;DHT22;2313;48.552;9.370;2023-07-22T12:33:44;25.90;63.20
4602;DHT22;2313;48.552;9.370;2023-07-22T12:36:10;25.70;65.00
4602;DHT22;2313;48.552;9.370;2023-07-22T12:38:36;26.20;64.60
4602;DHT22;2313;48.552;9.370;2023-07-22T12:41:02;26.80;64.20
4602;DHT22;2313;48.552;9.370;2023-07-22T12:43:28;27.40;65.30
4602;DHT22;2313;48.552;9.370;2023-07-22T12:45:54;27.60;62.40
4602;DHT22;2313;48.552;9.370;2023-07-22T12:48:20;27.30;60.80
4602;DHT22;2313;48.552;9.370;2023-07-22T12:50:46;27.00;60.90
4602;DHT22;2313;48.552;9.370;2023-07-22T12:53:14;27.50;62.60
4602;DHT22;2313;48.552;9.370;2023-07-22T12:55:40;27.60;60.30
4602;DHT22;2313;48.552;9.370;2023-07-22T12:58:05;28.10;60.00
4602;DHT22;2313;48.552;9.370;2023-07-22T13:00:31;28.10;59.20
4602;DHT22;2313;48.552;9.370;2023-07-22T13:02:57;27.80;57.80
4602;DHT22;2313;48.552;9.370;2023-07-22T13:05:23;27.60;58.70
4602;DHT22;2313;48.552;9.370;2023-07-22T13:07:48;27.50;60.80
4602;DHT22;2313;48.552;9.370;2023-07-22T13:10:15;27.00;59.10
4602;DHT22;2313;48.552;9.370;2023-07-22T13:12:43;26.90;62.40
4602;DHT22;2313;48.552;9.370;2023-07-22T13:15:09;27.00;61.00
4602;DHT22;2313;48.552;9.370;2023-07-22T13:17:35;27.00;62.30
4602;DHT22;2313;48.552;9.370;2023-07-22T13:20:01;27.10;61.40
4602;DHT22;2313;48.552;9.370;2023-07-22T13:22:26;26.80;62.70
4602;DHT22;2313;48.552;9.370;2023-07-22T13:24:52;26.60;62.00
4602;DHT22;2313;48.552;9.370;2023-07-22T13:27:18;26.80;62.40
4602;DHT22;2313;48.552;9.370;2023-07-22T13:29:44;26.80;61.80
4602;DHT22;2313;48.552;9.370;2023-07-22T13:32:10;26.60;59.80
4602;DHT22;2313;48.552;9.370;2023-07-22T13:34:36;26.70;61.40
4602;DHT22;2313;48.552;9.370;2023-07-22T13:37:02;26.80;63.10
4602;DHT22;2313;48.552;9.370;2023-07-22T13:39:31;27.20;62.50
4602;DHT22;2313;48.552;9.370;2023-07-22T13:41:56;27.70;62.10
4602;DHT22;2313;48.552;9.370;2023-07-22T13:44:22;28.10;61.60
4602;DHT22;2313;48.552;9.370;2023-07-22T13:46:47;28.20;59.00
4602;DHT22;2313;48.552;9.370;2023-07-22T13:49:13;28.10;60.00
4602;DHT22;2313;48.552;9.370;2023-07-22T13:51:40;27.90;58.40
4602;DHT22;2313;48.552;9.370;2023-07-22T13:54:06;28.10;60.80
4602;DHT22;2313;48.552;9.370;2023-07-22T13:56:32;28.00;60.20
4602;DHT22;2313;48.552;9.370;2023-07-22T13:58:57;28.00;60.30
4602;DHT22;2313;48.552;9.370;2023-07-22T14:01:26;27.60;59.20
4602;DHT22;2313;48.552;9.370;2023-07-22T14:03:52;27.30;60.50
4602;DHT22;2313;48.552;9.370;2023-07-22T14:06:17;27.00;59.90
4602;DHT22;2313;48.552;9.370;2023-07-22T14:08:43;26.80;59.40
4602;DHT22;2313;48.552;9.370;2023-07-22T14:11:08;26.50;59.20
4602;DHT22;2313;48.552;9.370;2023-07-22T14:13:34;26.50;63.30
4602;DHT22;2313;48.552;9.370;2023-07-22T14:16:01;26.50;60.80
4602;DHT22;2313;48.552;9.370;2023-07-22T14:18:26;26.60;62.80
4602;DHT22;2313;48.552;9.370;2023-07-22T14:20:52;26.90;62.30
4602;DHT22;2313;48.552;9.370;2023-07-22T14:23:18;27.10;61.40
4602;DHT22;2313;48.552;9.370;2023-07-22T14:25:43;27.30;59.40
4602;DHT22;2313;48.552;9.370;2023-07-22T14:28:09;27.40;59.70
4602;DHT22;2313;48.552;9.370;2023-07-22T14:30:34;27.30;59.00
4602;DHT22;2313;48.552;9.370;2023-07-22T14:33:00;27.10;61.20
4602;DHT22;2313;48.552;9.370;2023-07-22T14:35:25;27.00;60.50
4602;DHT22;2313;48.552;9.370;2023-07-22T14:37:51;26.80;59.00
4602;DHT22;2313;48.552;9.370;2023-07-22T14:40:17;26.90;60.00
4602;DHT22;2313;48.552;9.370;2023-07-22T14:42:42;27.00;60.10
4602;DHT22;2313;48.552;9.370;2023-07-22T14:45:08;27.10;61.00
4602;DHT22;2313;48.552;9.370;2023-07-22T14:47:34;27.20;59.90
4602;DHT22;2313;48.552;9.370;2023-07-22T14:50:00;27.40;60.60
4602;DHT22;2313;48.552;9.370;2023-07-22T14:52:26;27.20;60.50
4602;DHT22;2313;48.552;9.370;2023-07-22T14:54:52;27.30;61.10
4602;DHT22;2313;48.552;9.370;2023-07-22T14:57:17;27.20;59.60
4602;DHT22;2313;48.552;9.370;2023-07-22T14:59:43;27.10;61.00
4602;DHT22;2313;48.552;9.370;2023-07-22T15:02:09;27.00;60.00
4602;DHT22;2313;48.552;9.370;2023-07-22T15:04:36;26.90;60.20
4602;DHT22;2313;48.552;9.370;2023-07-22T15:07:02;26.90;60.20
4602;DHT22;2313;48.552;9.370;2023-07-22T15:09:27;27.00;60.30
4602;DHT22;2313;48.552;9.370;2023-07-22T15:11:53;27.30;59.50
4602;DHT22;2313;48.552;9.370;2023-07-22T15:14:18;27.10;59.30
4602;DHT22;2313;48.552;9.370;2023-07-22T15:16:44;27.00;57.90
4602;DHT22;2313;48.552;9.370;2023-07-22T15:19:11;27.00;58.10
4602;DHT22;2313;48.552;9.370;2023-07-22T15:21:36;27.10;59.40
4602;DHT22;2313;48.552;9.370;2023-07-22T15:24:02;27.10;58.90
4602;DHT22;2313;48.552;9.370;2023-07-22T15:26:28;27.10;58.30
4602;DHT22;2313;48.552;9.370;2023-07-22T15:28:53;27.00;58.00
4602;DHT22;2313;48.552;9.370;2023-07-22T15:31:20;27.00;58.80
4602;DHT22;2313;48.552;9.370;2023-07-22T15:33:46;26.90;58.60
4602;DHT22;2313;48.552;9.370;2023-07-22T15:36:12;27.00;58.00
4602;DHT22;2313;48.552;9.370;2023-07-22T15:38:37;27.00;57.60
4602;DHT22;2313;48.552;9.370;2023-07-22T15:41:03;26.80;58.30
4602;DHT22;2313;48.552;9.370;2023-07-22T15:43:29;26.60;58.00
4602;DHT22;2313;48.552;9.370;2023-07-22T15:45:54;26.50;57.10
4602;DHT22;2313;48.552;9.370;2023-07-22T15:48:21;26.40;57.50
4602;DHT22;2313;48.552;9.370;2023-07-22T15:50:46;26.30;57.10
4602;DHT22;2313;48.552;9.370;2023-07-22T15:53:14;26.10;57.30
4602;DHT22;2313;48.552;9.370;2023-07-22T15:55:40;26.10;56.80
4602;DHT22;2313;48.552;9.370;2023-07-22T15:58:05;26.00;57.50
4602;DHT22;2313;48.552;9.370;2023-07-22T16:00:31;25.90;57.50
4602;DHT22;2313;48.552;9.370;2023-07-22T16:02:57;25.90;58.00
4602;DHT22;2313;48.552;9.370;2023-07-22T16:05:22;25.80;59.70
4602;DHT22;2313;48.552;9.370;2023-07-22T16:07:48;25.80;59.00
4602;DHT22;2313;48.552;9.370;2023-07-22T16:10:14;25.80;59.10
4602;DHT22;2313;48.552;9.370;2023-07-22T16:12:39;25.70;58.00